createdAt,value
2024-02-02T00:00:10.012Z,0.70
2024-02-02T00:02:39.794Z,0.70
2024-02-02T00:05:08.511Z,0.80
2024-02-02T00:07:37.078Z,0.70
2024-02-02T00:10:06.193Z,0.70
2024-02-02T00:12:36.155Z,0.70
2024-02-02T00:15:06.217Z,0.70
2024-02-02T00:17:35.264Z,0.70
2024-02-02T00:20:05.884Z,0.70
2024-02-02T00:22:34.539Z,0.70
2024-02-02T00:25:02.926Z,0.80
2024-02-02T00:27:32.020Z,0.80
2024-02-02T00:30:00.672Z,0.70
2024-02-02T00:32:30.429Z,0.70
2024-02-02T00:34:59.245Z,0.60
2024-02-02T00:37:28.825Z,0.70
2024-02-02T00:39:57.355Z,0.70
2024-02-02T00:42:26.205Z,0.70
2024-02-02T00:44:54.722Z,0.70
2024-02-02T00:47:23.222Z,0.70
2024-02-02T00:49:53.865Z,0.80
2024-02-02T00:52:23.327Z,1.10
2024-02-02T00:54:51.015Z,0.60
2024-02-02T00:57:19.145Z,0.60
2024-02-02T00:59:48.333Z,0.70
2024-02-02T01:02:16.899Z,0.70
2024-02-02T01:04:45.590Z,0.80
2024-02-02T01:07:18.263Z,0.60
2024-02-02T01:09:48.109Z,0.60
2024-02-02T01:12:18.668Z,1.20
2024-02-02T01:14:46.429Z,0.60
2024-02-02T01:17:14.585Z,0.50
2024-02-02T01:19:48.130Z,0.70
2024-02-02T01:22:18.101Z,0.60
2024-02-02T01:24:46.665Z,0.50
2024-02-02T01:27:17.259Z,0.50
2024-02-02T01:29:47.931Z,0.50
2024-02-02T01:32:18.748Z,0.60
2024-02-02T01:34:46.499Z,0.70
2024-02-02T01:37:14.786Z,0.60
2024-02-02T01:39:43.331Z,0.60
2024-02-02T01:42:13.415Z,0.50
2024-02-02T01:44:41.693Z,0.10
2024-02-02T01:47:10.181Z,0.50
2024-02-02T01:49:39.125Z,0.60
2024-02-02T01:52:08.265Z,0.50
2024-02-02T01:54:38.443Z,0.50
2024-02-02T01:57:07.097Z,0.50
2024-02-02T01:59:34.960Z,0.40
2024-02-02T02:02:04.952Z,0.50
2024-02-02T02:04:34.028Z,0.50
2024-02-02T02:07:04.658Z,0.50
2024-02-02T02:09:34.338Z,0.40
2024-02-02T02:12:02.758Z,0.40
2024-02-02T02:14:33.159Z,0.30
2024-02-02T02:17:01.650Z,0.40
2024-02-02T02:19:29.904Z,0.40
2024-02-02T02:21:57.505Z,0.40
2024-02-02T02:24:26.992Z,0.40
2024-02-02T02:26:54.776Z,0.40
2024-02-02T02:29:26.781Z,0.30
2024-02-02T02:31:56.953Z,0.40
2024-02-02T02:34:29.798Z,-0.40
2024-02-02T02:37:05.986Z,-0.10
2024-02-02T02:39:33.661Z,0.30
2024-02-02T02:42:02.515Z,0.30
2024-02-02T02:44:30.633Z,0.60
2024-02-02T02:47:00.169Z,0.30
2024-02-02T02:49:29.101Z,0.30
2024-02-02T02:51:57.739Z,0.30
2024-02-02T02:54:27.076Z,0.10
2024-02-02T02:56:57.061Z,0.50
2024-02-02T02:59:24.660Z,0.30
2024-02-02T03:01:55.579Z,0.90
2024-02-02T03:04:23.158Z,0.10
2024-02-02T03:06:51.622Z,0.40
2024-02-02T03:09:22.888Z,0.40
2024-02-02T03:11:52.851Z,0.30
2024-02-02T03:14:21.329Z,0.30
2024-02-02T03:16:51.646Z,0.80
2024-02-02T03:19:20.879Z,0.30
2024-02-02T03:21:50.234Z,0.30
2024-02-02T03:24:20.023Z,0.30
2024-02-02T03:26:50.589Z,0.20
2024-02-02T03:29:22.347Z,0.30
2024-02-02T03:31:51.560Z,0.30
2024-02-02T03:34:21.516Z,0.20
2024-02-02T03:36:50.139Z,0.20
2024-02-02T03:39:18.873Z,0.30
2024-02-02T03:41:46.591Z,0.20
2024-02-02T03:44:18.910Z,0.30
2024-02-02T03:46:48.603Z,0.30
2024-02-02T03:49:17.392Z,0.20
2024-02-02T03:54:20.018Z,0.10
2024-02-02T03:56:59.170Z,0.30
2024-02-02T03:59:28.418Z,0.20
2024-02-02T04:01:57.194Z,0.30
2024-02-02T04:04:25.739Z,0.40
2024-02-02T04:06:58.051Z,0.20
2024-02-02T04:09:26.385Z,0.20
2024-02-02T04:11:54.437Z,0.70
2024-02-02T04:14:28.282Z,0.20
2024-02-02T04:16:57.107Z,0.20
2024-02-02T04:19:26.175Z,0.20
2024-02-02T04:22:00.064Z,0.10
2024-02-02T04:24:29.041Z,0.30
2024-02-02T04:26:56.493Z,0.00
2024-02-02T04:29:29.392Z,0.30
2024-02-02T04:31:58.840Z,0.10
2024-02-02T04:34:26.903Z,0.10
2024-02-02T04:36:56.631Z,0.10
2024-02-02T04:39:27.783Z,0.20
2024-02-02T04:41:57.041Z,0.10
2024-02-02T04:44:27.947Z,0.10
2024-02-02T04:46:58.117Z,0.10
2024-02-02T04:49:28.191Z,0.10
2024-02-02T04:52:01.022Z,0.00
2024-02-02T04:54:34.139Z,0.10
2024-02-02T04:57:05.150Z,0.10
2024-02-02T04:59:38.534Z,0.10
2024-02-02T05:02:09.772Z,0.20
2024-02-02T05:04:37.442Z,0.10
2024-02-02T05:07:06.455Z,0.00
2024-02-02T05:09:38.597Z,0.10
2024-02-02T05:12:08.148Z,0.00
2024-02-02T05:14:36.906Z,0.00
2024-02-02T05:17:09.722Z,0.00
2024-02-02T05:19:37.916Z,0.00
2024-02-02T05:22:06.876Z,0.30
2024-02-02T05:24:44.324Z,0.10
2024-02-02T05:27:18.932Z,0.00
2024-02-02T05:29:49.036Z,0.00
2024-02-02T05:32:19.975Z,-0.10
2024-02-02T05:34:52.146Z,0.00
2024-02-02T05:37:22.089Z,0.10
2024-02-02T05:39:52.545Z,-0.10
2024-02-02T05:42:29.272Z,-0.10
2024-02-02T05:44:56.995Z,0.10
2024-02-02T05:47:27.803Z,-0.10
2024-02-02T05:49:59.551Z,-0.10
2024-02-02T05:52:27.116Z,0.00
2024-02-02T05:54:58.156Z,0.00
2024-02-02T05:57:25.765Z,0.10
2024-02-02T05:59:53.938Z,0.00
2024-02-02T06:02:24.093Z,-0.10
2024-02-02T06:04:54.206Z,-0.10
2024-02-02T06:07:27.512Z,0.00
2024-02-02T06:10:03.243Z,-0.10
2024-02-02T06:12:32.453Z,-0.20
2024-02-02T06:15:00.887Z,-0.10
2024-02-02T06:17:30.871Z,-0.10
2024-02-02T06:20:01.771Z,-0.10
2024-02-02T06:22:30.523Z,-0.20
2024-02-02T06:25:01.331Z,0.20
2024-02-02T06:27:32.775Z,0.00
2024-02-02T06:30:03.816Z,0.00
2024-02-02T06:32:32.886Z,-0.40
2024-02-02T06:35:02.702Z,-0.20
2024-02-02T06:37:31.840Z,0.00
2024-02-02T06:40:01.424Z,-0.40
2024-02-02T06:42:31.179Z,0.00
2024-02-02T06:45:00.330Z,-0.40
2024-02-02T06:47:32.037Z,-0.20
2024-02-02T06:50:02.212Z,-0.30
2024-02-02T06:52:32.063Z,-0.20
2024-02-02T06:55:01.072Z,0.20
2024-02-02T06:57:33.871Z,-0.20
2024-02-02T07:00:01.691Z,-0.20
2024-02-02T07:02:34.875Z,-0.60
2024-02-02T07:05:05.154Z,0.00
2024-02-02T07:07:32.578Z,0.00
2024-02-02T07:10:02.815Z,-0.10
2024-02-02T07:12:54.936Z,-0.20
2024-02-02T07:15:24.882Z,-0.40
2024-02-02T07:17:54.066Z,-0.30
2024-02-02T07:20:29.056Z,-0.40
2024-02-02T07:22:59.382Z,-0.30
2024-02-02T07:25:27.031Z,-0.40
2024-02-02T07:27:58.644Z,0.30
2024-02-02T07:30:36.297Z,0.10
2024-02-02T07:33:25.132Z,-0.20
2024-02-02T07:35:53.985Z,-0.30
2024-02-02T07:38:47.849Z,0.10
2024-02-02T07:41:23.318Z,-0.20
2024-02-02T07:43:56.594Z,-0.60
2024-02-02T07:46:26.843Z,-0.20
2024-02-02T07:48:57.938Z,0.00
2024-02-02T07:51:28.745Z,0.50
2024-02-02T07:53:56.587Z,0.10
2024-02-02T07:56:28.184Z,0.10
2024-02-02T07:59:00.523Z,-0.10
2024-02-02T08:01:35.509Z,-0.10
2024-02-02T08:04:05.645Z,-0.10
2024-02-02T08:06:34.247Z,-0.10
2024-02-02T08:09:03.037Z,-0.20
2024-02-02T08:11:37.744Z,-0.70
2024-02-02T08:14:07.428Z,0.20
2024-02-02T08:16:35.788Z,-0.10
2024-02-02T08:19:05.598Z,0.00
2024-02-02T08:21:34.351Z,-0.10
2024-02-02T08:24:03.608Z,0.20
2024-02-02T08:26:33.823Z,0.00
2024-02-02T08:29:02.311Z,0.00
2024-02-02T08:31:30.513Z,0.10
2024-02-02T08:33:59.722Z,0.00
2024-02-02T08:36:28.446Z,0.00
2024-02-02T08:38:57.174Z,0.10
2024-02-02T08:41:28.448Z,0.20
2024-02-02T08:43:57.378Z,0.10
2024-02-02T08:46:25.745Z,0.30
2024-02-02T08:48:53.898Z,0.10
2024-02-02T08:51:25.844Z,0.20
2024-02-02T08:54:48.873Z,0.20
2024-02-02T08:57:35.347Z,0.40
2024-02-02T09:00:15.279Z,0.20
2024-02-02T09:03:06.766Z,0.30
2024-02-02T09:05:56.178Z,0.40
2024-02-02T09:08:40.563Z,0.50
2024-02-02T09:11:19.998Z,0.50
2024-02-02T09:13:49.501Z,0.40
2024-02-02T09:16:20.467Z,0.50
2024-02-02T09:18:59.834Z,0.40
2024-02-02T09:21:37.023Z,0.50
2024-02-02T09:24:08.529Z,0.50
2024-02-02T09:26:41.484Z,0.80
2024-02-02T09:29:15.807Z,0.50
2024-02-02T09:31:44.211Z,0.60
2024-02-02T09:34:21.290Z,0.90
2024-02-02T09:36:51.995Z,0.70
2024-02-02T09:39:42.524Z,0.70
2024-02-02T09:42:43.349Z,0.80
2024-02-02T09:45:20.803Z,0.80
2024-02-02T09:48:04.738Z,0.90
2024-02-02T09:50:56.891Z,0.80
2024-02-02T09:53:44.327Z,0.80
2024-02-02T09:59:45.958Z,0.80
2024-02-02T10:02:56.102Z,1.00
2024-02-02T10:05:45.517Z,0.80
2024-02-02T10:08:20.275Z,0.90
2024-02-02T10:10:48.777Z,0.90
2024-02-02T10:13:42.204Z,0.90
2024-02-02T10:16:31.279Z,1.00
2024-02-02T10:19:10.934Z,1.10
2024-02-02T10:22:11.795Z,1.10
2024-02-02T10:24:58.744Z,1.20
2024-02-02T10:27:47.594Z,1.30
2024-02-02T10:30:29.611Z,1.20
2024-02-02T10:33:39.613Z,1.00
2024-02-02T10:36:31.359Z,1.30
2024-02-02T10:39:12.116Z,1.30
2024-02-02T10:42:07.951Z,1.00
2024-02-02T10:44:47.533Z,1.30
2024-02-02T10:47:26.179Z,1.10
2024-02-02T10:50:07.589Z,1.20
2024-02-02T10:52:59.985Z,1.30
2024-02-02T10:55:46.723Z,1.50
2024-02-02T10:59:10.076Z,1.20
2024-02-02T11:01:55.792Z,1.30
2024-02-02T11:04:41.377Z,1.40
2024-02-02T11:07:30.210Z,1.20
2024-02-02T11:10:01.696Z,1.40
2024-02-02T11:12:38.128Z,1.40
2024-02-02T11:15:40.921Z,1.50
2024-02-02T11:18:22.619Z,1.30
2024-02-02T11:21:09.625Z,1.30
2024-02-02T11:24:04.172Z,1.50
2024-02-02T11:26:47.957Z,1.20
2024-02-02T11:29:33.656Z,1.40
2024-02-02T11:32:11.061Z,1.30
2024-02-02T11:35:03.678Z,1.40
2024-02-02T11:37:51.321Z,1.30
2024-02-02T11:40:24.058Z,1.40
2024-02-02T11:43:00.711Z,1.50
2024-02-02T11:45:38.311Z,1.40
2024-02-02T11:48:10.071Z,1.40
2024-02-02T11:50:45.255Z,1.40
2024-02-02T11:53:34.943Z,1.30
2024-02-02T11:56:08.888Z,1.60
2024-02-02T11:58:40.939Z,1.60
2024-02-02T12:01:49.428Z,1.40
2024-02-02T12:04:41.805Z,1.60
2024-02-02T12:07:22.769Z,1.60
2024-02-02T12:09:58.900Z,1.70
2024-02-02T12:12:42.917Z,1.20
2024-02-02T12:15:12.035Z,1.60
2024-02-02T12:17:40.791Z,2.50
2024-02-02T12:20:13.707Z,1.80
2024-02-02T12:22:42.771Z,1.90
2024-02-02T12:25:15.201Z,1.80
2024-02-02T12:27:46.465Z,1.70
2024-02-02T12:30:16.644Z,1.80
2024-02-02T12:33:00.245Z,2.10
2024-02-02T12:35:29.208Z,1.80
2024-02-02T12:37:57.005Z,1.90
2024-02-02T12:40:28.228Z,2.00
2024-02-02T12:42:58.962Z,2.00
2024-02-02T12:45:29.323Z,1.80
2024-02-02T12:48:01.956Z,1.70
2024-02-02T12:50:29.737Z,1.90
2024-02-02T12:52:58.515Z,2.00
2024-02-02T12:55:29.268Z,1.90
2024-02-02T12:57:58.001Z,1.80
2024-02-02T13:00:28.199Z,1.90
2024-02-02T13:02:56.924Z,1.60
2024-02-02T13:05:31.503Z,1.60
2024-02-02T13:07:59.223Z,1.80
2024-02-02T13:10:51.188Z,1.90
2024-02-02T13:13:19.479Z,2.00
2024-02-02T13:15:48.371Z,2.00
2024-02-02T13:18:27.530Z,2.40
2024-02-02T13:20:56.384Z,2.20
2024-02-02T13:23:31.992Z,1.90
2024-02-02T13:26:06.442Z,2.00
2024-02-02T13:28:40.414Z,1.80
2024-02-02T13:31:15.352Z,1.10
2024-02-02T13:33:55.221Z,1.40
2024-02-02T13:36:24.219Z,1.60
2024-02-02T13:38:57.100Z,1.50
2024-02-02T13:41:26.798Z,1.40
2024-02-02T13:44:05.083Z,1.30
2024-02-02T13:46:33.215Z,1.40
2024-02-02T13:49:02.347Z,1.30
2024-02-02T13:51:34.926Z,1.30
2024-02-02T13:54:03.331Z,1.20
2024-02-02T13:56:32.247Z,1.70
2024-02-02T13:58:59.684Z,1.60
2024-02-02T14:01:31.316Z,1.60
2024-02-02T14:04:01.293Z,1.40
2024-02-02T14:06:32.832Z,1.30
2024-02-02T14:09:01.249Z,1.20
2024-02-02T14:11:32.581Z,1.40
2024-02-02T14:14:00.919Z,1.20
2024-02-02T14:16:32.932Z,1.20
2024-02-02T14:19:13.083Z,1.50
2024-02-02T14:21:42.778Z,1.00
2024-02-02T14:24:18.454Z,0.90
2024-02-02T14:26:57.627Z,0.90
2024-02-02T14:29:28.744Z,0.80
2024-02-02T14:32:00.338Z,0.90
2024-02-02T14:34:29.297Z,0.90
2024-02-02T14:36:58.654Z,0.60
2024-02-02T14:39:29.295Z,1.00
2024-02-02T14:41:58.857Z,1.00
2024-02-02T14:44:29.145Z,0.90
2024-02-02T14:46:58.930Z,0.30
2024-02-02T14:49:27.913Z,0.70
2024-02-02T14:51:57.213Z,0.60
2024-02-02T14:54:25.492Z,0.60
2024-02-02T14:56:53.894Z,0.70
2024-02-02T14:59:34.123Z,0.60
2024-02-02T15:02:05.256Z,0.60
2024-02-02T15:04:34.748Z,0.80
2024-02-02T15:07:04.653Z,0.60
2024-02-02T15:09:32.526Z,0.50
2024-02-02T15:12:05.142Z,0.20
2024-02-02T15:14:36.506Z,0.60
2024-02-02T15:17:05.871Z,0.50
2024-02-02T15:19:35.530Z,0.40
2024-02-02T15:22:05.240Z,0.60
2024-02-02T15:24:33.665Z,0.30
2024-02-02T15:27:03.435Z,-0.10
2024-02-02T15:29:34.299Z,0.60
2024-02-02T15:32:02.757Z,0.40
2024-02-02T15:34:32.948Z,-0.10
2024-02-02T15:37:01.596Z,0.30
2024-02-02T15:39:37.253Z,0.30
2024-02-02T15:42:11.303Z,0.30
2024-02-02T15:44:40.221Z,0.40
2024-02-02T15:47:08.699Z,0.00
2024-02-02T15:49:37.538Z,0.10
2024-02-02T15:52:06.386Z,0.40
2024-02-02T15:54:35.437Z,0.50
2024-02-02T15:57:03.588Z,0.50
2024-02-02T15:59:33.724Z,0.50
2024-02-02T16:02:03.271Z,0.30
2024-02-02T16:07:06.438Z,0.30
2024-02-02T16:09:42.746Z,0.40
2024-02-02T16:12:13.892Z,0.40
2024-02-02T16:14:43.574Z,0.50
2024-02-02T16:19:41.741Z,0.40
2024-02-02T16:22:11.593Z,0.20
2024-02-02T16:24:40.797Z,0.30
2024-02-02T16:27:11.224Z,0.30
2024-02-02T16:29:41.016Z,0.40
2024-02-02T16:32:10.345Z,0.30
2024-02-02T16:34:38.428Z,-0.10
2024-02-02T16:37:05.896Z,-0.20
2024-02-02T16:39:34.375Z,0.30
2024-02-02T16:42:03.177Z,0.40
2024-02-02T16:44:31.524Z,0.50
2024-02-02T16:47:01.227Z,0.60
2024-02-02T16:49:32.359Z,0.50
2024-02-02T16:52:01.411Z,0.40
2024-02-02T16:54:29.765Z,0.50
2024-02-02T16:56:59.515Z,0.50
2024-02-02T16:59:27.151Z,0.40
2024-02-02T17:01:55.251Z,-0.40
2024-02-02T17:04:23.814Z,0.40
2024-02-02T17:06:52.799Z,0.60
2024-02-02T17:09:21.635Z,0.30
2024-02-02T17:11:49.063Z,0.60
2024-02-02T17:14:16.554Z,0.40
2024-02-02T17:16:46.012Z,0.10
2024-02-02T17:19:20.973Z,0.70
2024-02-02T17:21:49.519Z,0.70
2024-02-02T17:24:17.920Z,0.80
2024-02-02T17:26:49.112Z,0.70
2024-02-02T17:29:18.518Z,0.90
2024-02-02T17:31:50.126Z,0.70
2024-02-02T17:34:19.032Z,0.40
2024-02-02T17:36:47.508Z,1.10
2024-02-02T17:39:15.064Z,1.00
2024-02-02T17:41:42.532Z,1.00
2024-02-02T17:44:09.907Z,0.90
2024-02-02T17:46:38.789Z,0.90
2024-02-02T17:49:08.136Z,1.00
2024-02-02T17:51:36.541Z,1.10
2024-02-02T17:54:04.739Z,1.20
2024-02-02T17:56:33.137Z,1.00
2024-02-02T17:59:02.844Z,1.00
2024-02-02T18:01:32.341Z,1.20
2024-02-02T18:04:00.946Z,1.10
2024-02-02T18:06:30.907Z,1.10
2024-02-02T18:08:58.396Z,0.90
2024-02-02T18:11:28.814Z,1.10
2024-02-02T18:13:56.253Z,1.20
2024-02-02T18:16:24.679Z,1.10
2024-02-02T18:18:55.145Z,1.40
2024-02-02T18:21:23.862Z,1.30
2024-02-02T18:23:54.720Z,1.10
2024-02-02T18:28:52.743Z,1.20
2024-02-02T18:31:21.175Z,0.80
2024-02-02T18:33:48.736Z,1.40
2024-02-02T18:36:18.427Z,1.20
2024-02-02T18:38:46.022Z,1.20
2024-02-02T18:41:13.753Z,1.20
2024-02-02T18:43:41.437Z,1.10
2024-02-02T18:46:09.885Z,1.20
2024-02-02T18:48:40.113Z,1.10
2024-02-02T18:51:16.226Z,1.40
2024-02-02T18:53:44.598Z,1.20
2024-02-02T18:56:15.196Z,1.20
2024-02-02T18:58:46.973Z,1.30
2024-02-02T19:01:25.408Z,1.30
2024-02-02T19:03:54.577Z,1.30
2024-02-02T19:06:23.122Z,1.30
2024-02-02T19:08:50.663Z,1.20
2024-02-02T19:11:20.758Z,1.60
2024-02-02T19:13:48.576Z,1.20
2024-02-02T19:16:20.710Z,1.40
2024-02-02T19:18:50.104Z,1.40
2024-02-02T19:21:32.529Z,1.00
2024-02-02T19:24:02.087Z,1.30
2024-02-02T19:26:30.513Z,1.40
2024-02-02T19:28:57.892Z,1.40
2024-02-02T19:31:27.962Z,1.30
2024-02-02T19:33:55.938Z,1.30
2024-02-02T19:36:30.249Z,1.40
2024-02-02T19:38:59.349Z,1.40
2024-02-02T19:41:30.784Z,1.40
2024-02-02T19:44:00.946Z,1.40
2024-02-02T19:46:32.043Z,1.60
2024-02-02T19:49:08.759Z,1.30
2024-02-02T19:51:39.206Z,1.10
2024-02-02T19:54:08.789Z,1.60
2024-02-02T19:56:37.300Z,1.30
2024-02-02T19:59:05.754Z,0.90
2024-02-02T20:01:35.363Z,1.20
2024-02-02T20:04:03.929Z,1.30
2024-02-02T20:06:32.710Z,1.30
2024-02-02T20:09:00.220Z,1.50
2024-02-02T20:11:29.770Z,1.40
2024-02-02T20:13:57.209Z,1.60
2024-02-02T20:16:25.968Z,1.40
2024-02-02T20:18:55.531Z,1.00
2024-02-02T20:21:25.126Z,1.50
2024-02-02T20:23:53.657Z,1.40
2024-02-02T20:26:22.317Z,1.40
2024-02-02T20:28:51.242Z,1.80
2024-02-02T20:31:20.341Z,1.50
2024-02-02T20:33:53.480Z,1.60
2024-02-02T20:36:24.702Z,2.30
2024-02-02T20:38:57.274Z,1.40
2024-02-02T20:41:28.511Z,1.20
2024-02-02T20:43:59.457Z,1.30
2024-02-02T20:46:29.542Z,1.30
2024-02-02T20:48:57.124Z,1.40
2024-02-02T20:51:24.837Z,0.60
2024-02-02T20:53:53.882Z,1.20
2024-02-02T20:56:22.376Z,1.10
2024-02-02T20:58:51.948Z,1.10
2024-02-02T21:01:20.693Z,1.10
2024-02-02T21:03:49.548Z,0.60
2024-02-02T21:06:17.329Z,1.00
2024-02-02T21:08:47.279Z,1.10
2024-02-02T21:11:17.202Z,0.90
2024-02-02T21:13:47.801Z,1.10
2024-02-02T21:16:16.980Z,1.60
2024-02-02T21:18:45.790Z,1.10
2024-02-02T21:21:22.348Z,1.20
2024-02-02T21:23:52.222Z,1.10
2024-02-02T21:26:23.132Z,1.00
2024-02-02T21:28:55.150Z,1.00
2024-02-02T21:31:24.039Z,0.90
2024-02-02T21:33:54.789Z,1.10
2024-02-02T21:36:22.286Z,0.90
2024-02-02T21:38:50.654Z,1.00
2024-02-02T21:41:18.935Z,1.60
2024-02-02T21:43:48.941Z,1.00
2024-02-02T21:46:21.642Z,1.60
2024-02-02T21:48:50.386Z,1.20
2024-02-02T21:51:20.104Z,0.90
2024-02-02T21:53:47.863Z,1.40
2024-02-02T21:56:17.549Z,1.00
2024-02-02T21:58:44.939Z,1.20
2024-02-02T22:01:12.832Z,0.50
2024-02-02T22:03:41.315Z,1.00
2024-02-02T22:06:10.870Z,1.10
2024-02-02T22:08:38.743Z,1.30
2024-02-02T22:11:07.790Z,1.30
2024-02-02T22:13:37.871Z,0.90
2024-02-02T22:16:13.117Z,1.00
2024-02-02T22:18:43.006Z,1.00
2024-02-02T22:21:13.549Z,1.00
2024-02-02T22:23:41.574Z,1.20
2024-02-02T22:26:09.839Z,1.10
2024-02-02T22:28:38.156Z,1.30
2024-02-02T22:31:07.035Z,0.80
2024-02-02T22:33:39.049Z,1.00
2024-02-02T22:36:09.901Z,1.40
2024-02-02T22:38:38.515Z,1.40
2024-02-02T22:41:17.242Z,1.20
2024-02-02T22:43:56.408Z,0.80
2024-02-02T22:46:26.976Z,1.30
2024-02-02T22:48:55.448Z,1.20
2024-02-02T22:51:24.100Z,0.90
2024-02-02T22:53:53.839Z,0.80
2024-02-02T22:56:22.151Z,0.80
2024-02-02T22:58:50.753Z,0.80
2024-02-02T23:01:21.571Z,1.10
2024-02-02T23:03:50.998Z,1.00
2024-02-02T23:06:19.516Z,0.90
2024-02-02T23:08:50.335Z,0.30
2024-02-02T23:11:19.183Z,1.20
2024-02-02T23:13:47.659Z,1.10
2024-02-02T23:16:15.208Z,1.00
2024-02-02T23:18:42.935Z,1.10
2024-02-02T23:21:11.480Z,0.20
2024-02-02T23:23:39.312Z,1.10
2024-02-02T23:26:09.187Z,1.10
2024-02-02T23:28:40.987Z,1.20
2024-02-02T23:31:10.238Z,0.90
2024-02-02T23:33:37.891Z,0.90
2024-02-02T23:36:06.923Z,0.90
2024-02-02T23:38:34.349Z,1.10
2024-02-02T23:41:01.780Z,1.20
2024-02-02T23:43:31.797Z,1.00
2024-02-02T23:45:59.409Z,0.90
2024-02-02T23:48:28.411Z,1.20
2024-02-02T23:50:59.911Z,0.60
2024-02-02T23:53:30.258Z,1.10
2024-02-02T23:55:59.792Z,1.20
2024-02-02T23:58:28.398Z,1.00
